createdAt,value
2023-02-03T00:00:42.240Z,100374.84
2023-02-03T00:03:12.250Z,100363.34
2023-02-03T00:05:39.620Z,100386.09
2023-02-03T00:08:08.704Z,100381.81
2023-02-03T00:10:37.136Z,100389.56
2023-02-03T00:13:03.615Z,100385.25
2023-02-03T00:15:30.261Z,100380.00
2023-02-03T00:17:56.755Z,100388.78
2023-02-03T00:20:25.989Z,100400.03
2023-02-03T00:22:52.880Z,100401.78
2023-02-03T00:25:23.795Z,100395.75
2023-02-03T00:27:57.940Z,100399.09
2023-02-03T00:30:29.346Z,100398.19
2023-02-03T00:32:58.479Z,100392.91
2023-02-03T00:35:24.914Z,100401.59
2023-02-03T00:37:56.259Z,100398.19
2023-02-03T00:40:25.508Z,100401.59
2023-02-03T00:42:52.810Z,100393.72
2023-02-03T00:45:21.759Z,100400.69
2023-02-03T00:47:48.567Z,100402.38
2023-02-03T00:50:15.162Z,100417.22
2023-02-03T00:52:47.450Z,100410.13
2023-02-03T00:55:14.114Z,100412.72
2023-02-03T00:57:40.694Z,100411.84
2023-02-03T01:00:07.952Z,100395.13
2023-02-03T01:02:35.719Z,100394.19
2023-02-03T01:05:02.371Z,100386.31
2023-02-03T01:07:32.187Z,100387.19
2023-02-03T01:09:58.713Z,100399.41
2023-02-03T01:12:25.271Z,100394.13
2023-02-03T01:14:51.834Z,100395.88
2023-02-03T01:17:18.471Z,100399.34
2023-02-03T01:19:47.957Z,100406.28
2023-02-03T01:22:14.543Z,100407.16
2023-02-03T01:24:41.117Z,100407.09
2023-02-03T01:27:07.697Z,100374.66
2023-02-03T01:29:36.758Z,100386.06
2023-02-03T01:32:03.635Z,100379.88
2023-02-03T01:34:30.326Z,100375.47
2023-02-03T01:36:56.848Z,100376.31
2023-02-03T01:39:23.371Z,100386.81
2023-02-03T01:41:49.850Z,100399.16
2023-02-03T01:44:52.132Z,100401.91
2023-02-03T01:47:39.525Z,100400.78
2023-02-03T01:50:12.664Z,100373.59
2023-02-03T01:52:42.171Z,100372.84
2023-02-03T01:55:12.878Z,100348.31
2023-02-03T01:58:02.915Z,100336.16
2023-02-03T02:00:31.026Z,100328.13
2023-02-03T02:03:00.808Z,100328.19
2023-02-03T02:06:00.180Z,100327.38
2023-02-03T02:08:27.203Z,100321.00
2023-02-03T02:10:54.266Z,100323.69
2023-02-03T02:13:20.984Z,100324.56
2023-02-03T02:16:00.016Z,100330.88
2023-02-03T02:19:01.884Z,100320.31
2023-02-03T02:21:47.539Z,100315.97
2023-02-03T02:24:45.005Z,100304.44
2023-02-03T02:27:33.701Z,100319.44
2023-02-03T02:30:33.606Z,100322.94
2023-02-03T02:33:08.646Z,100320.22
2023-02-03T02:35:46.530Z,100325.34
2023-02-03T02:38:35.006Z,100331.69
2023-02-03T02:41:10.425Z,100342.03
2023-02-03T02:43:54.399Z,100339.66
2023-02-03T02:46:32.940Z,100355.44
2023-02-03T02:49:14.237Z,100344.03
2023-02-03T02:51:45.161Z,100343.91
2023-02-03T02:54:20.858Z,100322.88
2023-02-03T02:56:56.279Z,100314.97
2023-02-03T02:59:24.980Z,100314.97
2023-02-03T03:01:57.555Z,100321.00
2023-02-03T03:04:29.437Z,100314.03
2023-02-03T03:07:07.277Z,100321.22
2023-02-03T03:09:39.961Z,100307.91
2023-02-03T03:12:17.627Z,100293.06
2023-02-03T03:14:55.962Z,100299.97
2023-02-03T03:17:33.535Z,100309.66
2023-02-03T03:20:55.533Z,100306.09
2023-02-03T03:23:17.556Z,100307.16
2023-02-03T03:25:48.736Z,100306.09
2023-02-03T03:28:26.678Z,100308.84
2023-02-03T03:30:53.834Z,100294.63
2023-02-03T03:33:23.945Z,100286.88
2023-02-03T03:36:13.689Z,100300.97
2023-02-03T03:38:48.597Z,100285.19
2023-02-03T03:41:42.042Z,100283.47
2023-02-03T03:44:14.316Z,100273.72
2023-02-03T03:46:51.526Z,100274.53
2023-02-03T03:49:21.381Z,100271.88
2023-02-03T03:51:58.855Z,100273.81
2023-02-03T03:54:28.974Z,100291.38
2023-02-03T03:57:03.052Z,100287.88
2023-02-03T03:59:43.374Z,100269.53
2023-02-03T04:02:12.244Z,100271.25
2023-02-03T04:04:39.842Z,100290.50
2023-02-03T04:07:06.420Z,100272.97
2023-02-03T04:09:36.472Z,100284.34
2023-02-03T04:12:05.984Z,100286.97
2023-02-03T04:14:37.845Z,100287.81
2023-02-03T04:17:04.751Z,100280.78
2023-02-03T04:19:31.196Z,100271.97
2023-02-03T04:21:57.726Z,100268.47
2023-02-03T04:24:24.277Z,100278.91
2023-02-03T04:26:50.833Z,100278.91
2023-02-03T04:29:19.548Z,100291.13
2023-02-03T04:31:46.269Z,100258.72
2023-02-03T04:34:12.760Z,100262.31
2023-02-03T04:36:39.198Z,100264.00
2023-02-03T04:39:05.826Z,100260.50
2023-02-03T04:41:32.512Z,100270.09
2023-02-03T04:43:59.074Z,100266.63
2023-02-03T04:46:25.518Z,100255.16
2023-02-03T04:48:52.014Z,100249.91
2023-02-03T04:51:20.556Z,100249.91
2023-02-03T04:53:47.092Z,100258.59
2023-02-03T04:58:42.699Z,100262.06
2023-02-03T05:01:09.421Z,100248.91
2023-02-03T05:03:36.373Z,100237.56
2023-02-03T05:06:03.337Z,100232.19
2023-02-03T05:08:30.717Z,100234.94
2023-02-03T05:10:59.171Z,100231.44
2023-02-03T05:13:27.318Z,100239.31
2023-02-03T05:15:53.695Z,100255.03
2023-02-03T05:18:20.081Z,100251.59
2023-02-03T05:20:46.519Z,100241.94
2023-02-03T05:23:12.884Z,100245.50
2023-02-03T05:25:39.283Z,100229.72
2023-02-03T05:28:05.688Z,100244.78
2023-02-03T05:30:33.149Z,100234.44
2023-02-03T05:32:59.492Z,100246.66
2023-02-03T05:35:26.081Z,100219.41
2023-02-03T05:37:52.507Z,100238.81
2023-02-03T05:40:37.275Z,100220.34
2023-02-03T05:43:03.641Z,100258.94
2023-02-03T05:45:30.053Z,100229.16
2023-02-03T05:47:57.044Z,100242.31
2023-02-03T05:50:23.546Z,100238.81
2023-02-03T05:52:50.021Z,100239.69
2023-02-03T05:55:16.584Z,100231.75
2023-02-03T05:57:43.034Z,100235.19
2023-02-03T06:00:10.080Z,100225.59
2023-02-03T06:02:36.489Z,100232.56
2023-02-03T06:05:02.958Z,100225.53
2023-02-03T06:07:29.342Z,100214.09
2023-02-03T06:09:55.740Z,100241.31
2023-02-03T06:12:22.198Z,100223.75
2023-02-03T06:14:48.594Z,100234.19
2023-02-03T06:17:14.942Z,100242.09
2023-02-03T06:19:41.310Z,100246.41
2023-02-03T06:22:07.680Z,100250.78
2023-02-03T06:24:34.104Z,100234.00
2023-02-03T06:27:00.555Z,100233.94
2023-02-03T06:29:26.930Z,100225.97
2023-02-03T06:31:53.452Z,100230.22
2023-02-03T06:34:19.909Z,100242.38
2023-02-03T06:36:47.199Z,100235.25
2023-02-03T06:39:13.755Z,100245.78
2023-02-03T06:41:40.168Z,100251.75
2023-02-03T06:44:06.692Z,100249.97
2023-02-03T06:46:33.810Z,100243.75
2023-02-03T06:49:00.311Z,100241.94
2023-02-03T06:51:26.758Z,100251.44
2023-02-03T06:53:53.228Z,100241.78
2023-02-03T06:56:19.580Z,100251.38
2023-02-03T06:58:45.979Z,100250.38
2023-02-03T07:01:12.402Z,100256.50
2023-02-03T07:03:38.856Z,100239.78
2023-02-03T07:06:05.549Z,100242.41
2023-02-03T07:08:31.911Z,100236.22
2023-02-03T07:10:58.244Z,100242.34
2023-02-03T07:13:24.628Z,100250.25
2023-02-03T07:15:51.105Z,100244.03
2023-02-03T07:18:43.484Z,100254.56
2023-02-03T07:21:07.028Z,100260.78
2023-02-03T07:23:33.577Z,100264.22
2023-02-03T07:26:00.938Z,100248.63
2023-02-03T07:28:27.289Z,100246.88
2023-02-03T07:30:53.684Z,100241.78
2023-02-03T07:33:20.490Z,100237.44
2023-02-03T07:35:53.870Z,100243.88
2023-02-03T07:38:20.339Z,100237.66
2023-02-03T07:40:46.767Z,100244.75
2023-02-03T07:43:13.441Z,100244.00
2023-02-03T07:45:39.881Z,100235.31
2023-02-03T07:48:06.292Z,100248.47
2023-02-03T07:50:33.377Z,100241.44
2023-02-03T07:53:00.605Z,100254.53
2023-02-03T07:55:27.109Z,100256.16
2023-02-03T07:57:54.779Z,100241.31
2023-02-03T08:00:21.639Z,100251.66
2023-02-03T08:02:48.115Z,100247.19
2023-02-03T08:05:14.931Z,100239.16
2023-02-03T08:07:42.191Z,100246.06
2023-02-03T08:10:10.951Z,100255.56
2023-02-03T08:12:37.896Z,100268.53
2023-02-03T08:15:04.998Z,100263.19
2023-02-03T08:17:31.334Z,100250.75
2023-02-03T08:19:57.646Z,100244.47
2023-02-03T08:22:23.942Z,100245.19
2023-02-03T08:24:50.312Z,100242.34
2023-02-03T08:27:18.862Z,100254.56
2023-02-03T08:29:46.125Z,100235.06
2023-02-03T08:32:14.972Z,100234.03
2023-02-03T08:34:41.711Z,100236.53
2023-02-03T08:37:08.411Z,100236.28
2023-02-03T08:39:35.300Z,100242.34
2023-02-03T08:42:03.839Z,100241.41
2023-02-03T08:44:31.417Z,100244.81
2023-02-03T08:46:58.979Z,100235.13
2023-02-03T08:49:27.328Z,100229.00
2023-02-03T08:51:54.582Z,100243.78
2023-02-03T08:54:21.955Z,100244.66
2023-02-03T08:56:48.583Z,100248.97
2023-02-03T08:59:15.443Z,100241.00
2023-02-03T09:01:45.073Z,100247.13
2023-02-03T09:04:12.730Z,100244.50
2023-02-03T09:06:39.643Z,100247.81
2023-02-03T09:09:05.978Z,100248.75
2023-02-03T09:11:32.398Z,100248.69
2023-02-03T09:13:58.793Z,100241.63
2023-02-03T09:16:25.572Z,100242.41
2023-02-03T09:18:51.952Z,100244.09
2023-02-03T09:21:36.303Z,100257.22
2023-02-03T09:24:05.239Z,100257.13
2023-02-03T09:26:31.686Z,100245.66
2023-02-03T09:28:58.104Z,100250.06
2023-02-03T09:31:24.676Z,100229.00
2023-02-03T09:33:51.241Z,100240.41
2023-02-03T09:36:17.570Z,100242.16
2023-02-03T09:38:43.932Z,100242.16
2023-02-03T09:41:11.930Z,100249.31
2023-02-03T09:44:04.748Z,100237.22
2023-02-03T09:46:40.256Z,100248.50
2023-02-03T09:49:13.178Z,100245.88
2023-02-03T09:51:49.298Z,100241.69
2023-02-03T09:54:55.354Z,100250.59
2023-02-03T09:57:24.961Z,100246.06
2023-02-03T09:59:53.406Z,100261.84
2023-02-03T10:02:34.002Z,100275.03
2023-02-03T10:05:08.021Z,100281.19
2023-02-03T10:07:58.286Z,100293.53
2023-02-03T10:10:38.657Z,100295.16
2023-02-03T10:13:38.036Z,100293.41
2023-02-03T10:16:18.593Z,100303.69
2023-02-03T10:18:53.407Z,100305.38
2023-02-03T10:21:35.899Z,100307.09
2023-02-03T10:24:06.324Z,100307.81
2023-02-03T10:26:32.755Z,100323.53
2023-02-03T10:29:16.091Z,100321.84
2023-02-03T10:31:42.888Z,100346.25
2023-02-03T10:34:12.401Z,100342.59
2023-02-03T10:36:58.509Z,100328.00
2023-02-03T10:39:44.896Z,100321.91
2023-02-03T10:42:13.137Z,100324.63
2023-02-03T10:44:48.318Z,100346.69
2023-02-03T10:47:23.939Z,100354.59
2023-02-03T10:49:55.773Z,100338.06
2023-02-03T10:52:32.429Z,100333.75
2023-02-03T10:55:02.312Z,100358.25
2023-02-03T10:57:31.789Z,100354.66
2023-02-03T11:00:24.379Z,100349.53
2023-02-03T11:03:03.692Z,100362.56
2023-02-03T11:05:30.359Z,100362.44
2023-02-03T11:07:57.152Z,100363.19
2023-02-03T11:10:40.821Z,100370.34
2023-02-03T11:13:26.341Z,100368.41
2023-02-03T11:16:15.915Z,100371.97
2023-02-03T11:18:59.743Z,100381.56
2023-02-03T11:21:38.218Z,100371.72
2023-02-03T11:24:26.888Z,100378.00
2023-02-03T11:27:04.805Z,100373.59
2023-02-03T11:29:41.970Z,100373.59
2023-02-03T11:32:34.603Z,100381.56
2023-02-03T11:35:05.299Z,100376.09
2023-02-03T11:37:40.582Z,100377.94
2023-02-03T11:40:07.119Z,100377.72
2023-02-03T11:42:48.998Z,100379.69
2023-02-03T11:45:36.357Z,100376.22
2023-02-03T11:48:13.238Z,100386.84
2023-02-03T11:50:48.226Z,100381.50
2023-02-03T11:53:32.724Z,100388.38
2023-02-03T11:56:16.344Z,100400.88
2023-02-03T11:59:07.670Z,100385.81
2023-02-03T12:02:11.632Z,100384.88
2023-02-03T12:04:50.117Z,100397.78
2023-02-03T12:07:54.970Z,100387.06
2023-02-03T12:10:45.551Z,100397.47
2023-02-03T12:13:25.143Z,100389.34
2023-02-03T12:15:51.500Z,100400.25
2023-02-03T12:18:32.037Z,100392.13
2023-02-03T12:21:35.488Z,100396.53
2023-02-03T12:24:14.915Z,100406.88
2023-02-03T12:26:54.453Z,100401.53
2023-02-03T12:29:31.679Z,100408.34
2023-02-03T12:32:25.498Z,100387.25
2023-02-03T12:35:12.787Z,100384.22
2023-02-03T12:38:07.497Z,100402.75
2023-02-03T12:40:42.197Z,100393.81
2023-02-03T12:43:33.178Z,100371.81
2023-02-03T12:46:04.657Z,100420.84
2023-02-03T12:48:47.422Z,100400.72
2023-02-03T12:51:24.143Z,100409.34
2023-02-03T12:53:57.854Z,100414.69
2023-02-03T12:56:34.900Z,100418.44
2023-02-03T12:59:06.993Z,100416.66
2023-02-03T13:01:59.368Z,100419.50
2023-02-03T13:04:28.735Z,100420.38
2023-02-03T13:07:13.833Z,100431.13
2023-02-03T13:09:52.030Z,100410.13
2023-02-03T13:12:41.148Z,100409.44
2023-02-03T13:15:26.295Z,100406.78
2023-02-03T13:18:15.471Z,100399.91
2023-02-03T13:20:42.064Z,100411.13
2023-02-03T13:23:14.157Z,100415.72
2023-02-03T13:26:10.998Z,100411.53
2023-02-03T13:29:31.423Z,100423.84
2023-02-03T13:32:03.516Z,100432.53
2023-02-03T13:34:37.519Z,100410.81
2023-02-03T13:37:33.189Z,100439.19
2023-02-03T13:40:18.105Z,100438.41
2023-02-03T13:42:48.239Z,100457.63
2023-02-03T13:45:40.465Z,100451.72
2023-02-03T13:48:25.447Z,100454.38
2023-02-03T13:51:03.578Z,100452.72
2023-02-03T13:53:35.938Z,100450.09
2023-02-03T13:56:04.663Z,100452.72
2023-02-03T13:58:37.043Z,100477.47
2023-02-03T14:01:27.665Z,100475.09
2023-02-03T14:03:54.445Z,100478.47
2023-02-03T14:06:39.239Z,100476.03
2023-02-03T14:09:22.692Z,100475.34
2023-02-03T14:11:51.892Z,100478.84
2023-02-03T14:14:20.653Z,100478.03
2023-02-03T14:16:49.256Z,100485.19
2023-02-03T14:19:21.771Z,100483.63
2023-02-03T14:22:20.644Z,100482.75
2023-02-03T14:24:48.740Z,100502.06
2023-02-03T14:27:22.540Z,100498.63
2023-02-03T14:30:12.411Z,100478.69
2023-02-03T14:32:59.494Z,100513.91
2023-02-03T14:35:34.774Z,100521.81
2023-02-03T14:38:04.327Z,100521.06
2023-02-03T14:40:39.921Z,100530.78
2023-02-03T14:43:21.209Z,100523.06
2023-02-03T14:46:09.290Z,100543.53
2023-02-03T14:49:00.257Z,100533.97
2023-02-03T14:52:08.650Z,100542.03
2023-02-03T14:54:59.848Z,100547.44
2023-02-03T14:57:38.502Z,100550.13
2023-02-03T15:00:11.555Z,100571.19
2023-02-03T15:02:57.750Z,100565.09
2023-02-03T15:05:27.618Z,100559.66
2023-02-03T15:07:54.194Z,100552.00
2023-02-03T15:10:20.517Z,100563.50
2023-02-03T15:12:49.799Z,100562.84
2023-02-03T15:15:31.273Z,100566.53
2023-02-03T15:18:00.833Z,100569.16
2023-02-03T15:20:41.339Z,100575.41
2023-02-03T15:23:20.058Z,100572.84
2023-02-03T15:25:52.709Z,100579.78
2023-02-03T15:28:21.569Z,100591.22
2023-02-03T15:30:58.247Z,100574.69
2023-02-03T15:33:25.156Z,100590.50
2023-02-03T15:35:59.553Z,100589.75
2023-02-03T15:38:52.536Z,100591.78
2023-02-03T15:41:24.554Z,100590.91
2023-02-03T15:43:58.646Z,100593.69
2023-02-03T15:46:40.832Z,100597.19
2023-02-03T15:49:19.156Z,100604.34
2023-02-03T15:51:53.641Z,100595.78
2023-02-03T15:54:40.754Z,100598.56
2023-02-03T15:57:11.497Z,100610.84
2023-02-03T15:59:42.445Z,100612.69
2023-02-03T16:02:19.347Z,100606.75
2023-02-03T16:04:46.155Z,100611.13
2023-02-03T16:07:22.624Z,100622.75
2023-02-03T16:09:56.429Z,100614.91
2023-02-03T16:12:25.336Z,100623.72
2023-02-03T16:14:53.185Z,100620.22
2023-02-03T16:17:51.713Z,100618.63
2023-02-03T16:20:22.753Z,100641.44
2023-02-03T16:23:07.427Z,100639.00
2023-02-03T16:25:35.139Z,100645.16
2023-02-03T16:28:35.003Z,100646.25
2023-02-03T16:31:40.420Z,100654.25
2023-02-03T16:34:33.600Z,100645.47
2023-02-03T16:37:18.877Z,100649.91
2023-02-03T16:40:04.199Z,100649.16
2023-02-03T16:42:59.031Z,100650.38
2023-02-03T16:45:44.171Z,100656.50
2023-02-03T16:48:30.446Z,100663.69
2023-02-03T16:51:01.934Z,100653.31
2023-02-03T16:53:30.624Z,100655.25
2023-02-03T16:56:00.235Z,100664.16
2023-02-03T16:58:27.380Z,100661.66
2023-02-03T17:00:54.420Z,100660.84
2023-02-03T17:03:25.713Z,100667.28
2023-02-03T17:05:52.253Z,100678.69
2023-02-03T17:08:21.957Z,100678.00
2023-02-03T17:10:49.321Z,100678.91
2023-02-03T17:13:17.464Z,100684.28
2023-02-03T17:15:46.569Z,100690.50
2023-02-03T17:18:17.253Z,100680.97
2023-02-03T17:20:45.178Z,100679.25
2023-02-03T17:23:13.229Z,100676.75
2023-02-03T17:25:40.209Z,100682.00
2023-02-03T17:28:08.279Z,100681.25
2023-02-03T17:30:35.529Z,100671.72
2023-02-03T17:33:03.298Z,100671.72
2023-02-03T17:35:30.119Z,100684.97
2023-02-03T17:37:56.809Z,100693.75
2023-02-03T17:54:11.308Z,100752.75
2023-02-03T17:56:37.836Z,100748.47
2023-02-03T17:59:05.851Z,100748.53
2023-02-03T18:01:32.500Z,100751.16
2023-02-03T18:04:01.819Z,100738.16
2023-02-03T18:06:30.133Z,100744.25
2023-02-03T18:09:01.875Z,100752.13
2023-02-03T18:11:30.240Z,100757.38
2023-02-03T18:13:57.057Z,100764.28
2023-02-03T18:16:26.426Z,100760.88
2023-02-03T18:18:53.755Z,100770.41
2023-02-03T18:21:21.689Z,100774.75
2023-02-03T18:23:49.436Z,100770.25
2023-02-03T18:26:15.953Z,100788.63
2023-02-03T18:28:42.465Z,100797.31
2023-02-03T18:31:12.060Z,100806.09
2023-02-03T18:33:38.753Z,100799.03
2023-02-03T18:36:06.477Z,100799.03
2023-02-03T18:38:34.960Z,100806.00
2023-02-03T18:41:08.299Z,100810.44
2023-02-03T18:43:35.833Z,100812.09
2023-02-03T18:46:12.998Z,100812.16
2023-02-03T18:48:40.015Z,100817.34
2023-02-03T18:51:11.268Z,100816.63
2023-02-03T18:53:38.489Z,100819.25
2023-02-03T18:56:15.368Z,100828.97
2023-02-03T18:58:41.923Z,100829.84
2023-02-03T19:01:08.402Z,100829.06
2023-02-03T19:03:35.003Z,100815.09
2023-02-03T19:06:01.587Z,100835.31
2023-02-03T19:08:27.955Z,100851.09
2023-02-03T19:10:54.769Z,100848.53
2023-02-03T19:13:21.923Z,100852.97
2023-02-03T19:15:49.113Z,100867.81
2023-02-03T19:18:16.133Z,100878.34
2023-02-03T19:20:43.789Z,100869.53
2023-02-03T19:23:12.021Z,100878.34
2023-02-03T19:25:39.245Z,100881.75
2023-02-03T19:28:06.873Z,100877.31
2023-02-03T19:30:35.197Z,100881.72
2023-02-03T19:33:01.741Z,100860.75
2023-02-03T19:35:28.103Z,100873.88
2023-02-03T19:37:54.412Z,100897.50
2023-02-03T19:40:20.723Z,100890.59
2023-02-03T19:42:47.494Z,100895.84
2023-02-03T19:45:13.805Z,100897.72
2023-02-03T19:47:40.159Z,100895.09
2023-02-03T19:50:06.648Z,100899.47
2023-02-03T19:52:33.275Z,100910.84
2023-02-03T19:54:59.613Z,100903.81
2023-02-03T19:57:26.088Z,100908.22
2023-02-03T19:59:52.461Z,100908.16
2023-02-03T20:02:20.001Z,100927.34
2023-02-03T20:04:46.436Z,100915.13
2023-02-03T20:07:14.126Z,100915.97
2023-02-03T20:09:40.567Z,100928.22
2023-02-03T20:12:07.002Z,100930.84
2023-02-03T20:14:33.826Z,100936.09
2023-02-03T20:17:00.183Z,100937.84
2023-02-03T20:19:26.572Z,100938.75
2023-02-03T20:21:52.924Z,100931.81
2023-02-03T20:24:19.409Z,100935.31
2023-02-03T20:26:45.834Z,100949.34
2023-02-03T20:29:12.178Z,100954.59
2023-02-03T20:31:38.584Z,100959.03
2023-02-03T20:34:05.061Z,100954.66
2023-02-03T20:36:31.422Z,100965.13
2023-02-03T20:38:57.765Z,100961.66
2023-02-03T20:41:24.367Z,100970.41
2023-02-03T20:43:50.788Z,100975.63
2023-02-03T20:46:19.437Z,100966.06
2023-02-03T20:48:46.145Z,100967.78
2023-02-03T20:51:17.834Z,100967.03
2023-02-03T20:53:44.477Z,100971.31
2023-02-03T20:56:16.694Z,100970.56
2023-02-03T20:58:44.180Z,100985.44
2023-02-03T21:01:16.408Z,100985.53
2023-02-03T21:04:01.480Z,100984.63
2023-02-03T21:06:30.007Z,100995.19
2023-02-03T21:09:07.626Z,100991.84
2023-02-03T21:11:34.107Z,101009.31
2023-02-03T21:14:02.290Z,101016.34
2023-02-03T21:16:35.735Z,101016.47
2023-02-03T21:19:03.162Z,101013.84
2023-02-03T21:21:39.367Z,101020.91
2023-02-03T21:24:28.861Z,101019.25
2023-02-03T21:26:56.247Z,101018.31
2023-02-03T21:29:36.748Z,101016.75
2023-02-03T21:32:04.084Z,101007.97
2023-02-03T21:34:34.914Z,101003.72
2023-02-03T21:37:16.493Z,100999.38
2023-02-03T21:39:42.841Z,101004.63
2023-02-03T21:42:40.980Z,101022.31
2023-02-03T21:45:19.750Z,101001.41
2023-02-03T21:47:48.018Z,101017.97
2023-02-03T21:50:30.789Z,101024.22
2023-02-03T21:53:20.745Z,101035.47
2023-02-03T21:55:47.124Z,101032.78
2023-02-03T21:58:23.868Z,101032.81
2023-02-03T22:00:52.534Z,101023.97
2023-02-03T22:03:20.155Z,101027.38
2023-02-03T22:05:47.109Z,101032.59
2023-02-03T22:08:23.516Z,101036.97
2023-02-03T22:10:50.247Z,101033.38
2023-02-03T22:13:17.699Z,101043.03
2023-02-03T22:15:44.245Z,101043.88
2023-02-03T22:18:10.573Z,101050.00
2023-02-03T22:20:36.941Z,101058.78
2023-02-03T22:23:03.328Z,101065.78
2023-02-03T22:25:29.707Z,101065.84
2023-02-03T22:27:56.065Z,101069.38
2023-02-03T22:30:22.395Z,101066.78
2023-02-03T22:32:48.768Z,101071.22
2023-02-03T22:35:15.153Z,101071.31
2023-02-03T22:37:41.468Z,101076.59
2023-02-03T22:40:09.577Z,101086.28
2023-02-03T22:42:35.965Z,101085.47
2023-02-03T22:45:02.272Z,101083.78
2023-02-03T22:47:28.639Z,101094.34
2023-02-03T22:49:54.971Z,101089.19
2023-02-03T22:52:21.291Z,101096.22
2023-02-03T22:54:47.661Z,101093.63
2023-02-03T22:57:13.991Z,101118.09
2023-02-03T23:00:18.673Z,101119.16
2023-02-03T23:02:45.165Z,101114.72
2023-02-03T23:05:11.637Z,101107.78
2023-02-03T23:07:38.165Z,101117.41
2023-02-03T23:10:06.782Z,101124.41
2023-02-03T23:12:34.031Z,101119.16
2023-02-03T23:15:01.260Z,101125.34
2023-02-03T23:17:27.786Z,101120.09
2023-02-03T23:19:54.386Z,101127.16
2023-02-03T23:22:20.846Z,101126.25
2023-02-03T23:24:47.271Z,101138.47
2023-02-03T23:27:13.851Z,101124.53
2023-02-03T23:29:41.308Z,101141.97
2023-02-03T23:32:08.475Z,101148.97
2023-02-03T23:34:53.176Z,101150.75
2023-02-03T23:37:19.844Z,101135.84
2023-02-03T23:39:46.428Z,101138.47
2023-02-03T23:42:12.880Z,101142.00
2023-02-03T23:44:39.426Z,101145.50
2023-02-03T23:47:06.001Z,101156.91
2023-02-03T23:49:32.471Z,101147.28
2023-02-03T23:51:59.405Z,101148.19
2023-02-03T23:54:26.202Z,101157.84
2023-02-03T23:56:52.892Z,101147.38
2023-02-03T23:59:19.781Z,101150.00
